createdAt,value
2023-04-14T00:01:17.121Z,11.79
2023-04-14T00:04:20.377Z,11.87
2023-04-14T00:07:23.061Z,11.88
2023-04-14T00:10:26.788Z,11.92
2023-04-14T00:13:29.189Z,11.95
2023-04-14T00:16:32.258Z,11.87
2023-04-14T00:19:34.567Z,11.77
2023-04-14T00:22:37.378Z,11.86
2023-04-14T00:25:39.907Z,11.87
2023-04-14T00:28:42.515Z,11.89
2023-04-14T00:31:45.012Z,11.94
2023-04-14T00:34:47.762Z,11.85
2023-04-14T00:37:51.745Z,11.87
2023-04-14T00:40:54.488Z,11.88
2023-04-14T00:43:56.771Z,12.03
2023-04-14T00:47:01.257Z,12.03
2023-04-14T00:50:03.862Z,12.06
2023-04-14T00:53:06.693Z,12.19
2023-04-14T00:56:09.238Z,12.20
2023-04-14T00:59:13.479Z,12.32
2023-04-14T01:02:17.115Z,12.35
2023-04-14T01:05:20.046Z,12.39
2023-04-14T01:08:23.322Z,12.41
2023-04-14T01:11:41.082Z,12.30
2023-04-14T01:14:59.395Z,12.43
2023-04-14T01:18:24.153Z,12.46
2023-04-14T01:21:33.168Z,12.44
2023-04-14T01:24:47.762Z,12.38
2023-04-14T01:28:13.068Z,12.49
2023-04-14T01:31:24.169Z,12.49
2023-04-14T01:34:43.712Z,12.37
2023-04-14T01:37:56.327Z,12.48
2023-04-14T01:41:04.731Z,12.42
2023-04-14T01:44:09.754Z,12.34
2023-04-14T01:47:15.379Z,12.44
2023-04-14T01:50:19.664Z,12.36
2023-04-14T01:53:24.156Z,12.48
2023-04-14T01:56:28.128Z,12.49
2023-04-14T01:59:33.560Z,12.48
2023-04-14T02:02:39.290Z,12.46
2023-04-14T02:05:43.763Z,12.52
2023-04-14T02:08:48.320Z,12.45
2023-04-14T02:11:52.001Z,12.53
2023-04-14T02:14:55.527Z,12.55
2023-04-14T02:17:59.064Z,12.55
2023-04-14T02:21:03.975Z,12.44
2023-04-14T02:24:06.654Z,12.56
2023-04-14T02:27:13.893Z,12.50
2023-04-14T02:30:21.591Z,12.59
2023-04-14T02:33:31.582Z,12.57
2023-04-14T02:36:48.907Z,12.56
2023-04-14T02:39:58.509Z,12.58
2023-04-14T02:43:05.725Z,12.59
2023-04-14T02:46:11.909Z,12.56
2023-04-14T02:49:16.501Z,12.58
2023-04-14T02:52:24.797Z,12.55
2023-04-14T02:55:29.544Z,12.55
2023-04-14T02:58:33.616Z,12.54
2023-04-14T03:01:37.115Z,12.54
2023-04-14T03:04:41.209Z,12.44
2023-04-14T03:07:44.965Z,12.43
2023-04-14T03:10:48.957Z,12.52
2023-04-14T03:13:54.790Z,12.41
2023-04-14T03:16:59.012Z,12.46
2023-04-14T03:20:02.656Z,12.39
2023-04-14T03:23:07.894Z,12.49
2023-04-14T03:26:17.330Z,12.47
2023-04-14T03:29:21.751Z,12.35
2023-04-14T03:32:29.349Z,12.49
2023-04-14T03:35:33.145Z,12.50
2023-04-14T03:38:37.124Z,12.48
2023-04-14T03:41:47.605Z,12.47
2023-04-14T03:44:54.153Z,12.44
2023-04-14T03:48:02.810Z,12.38
2023-04-14T03:51:09.183Z,12.37
2023-04-14T03:54:15.872Z,12.39
2023-04-14T03:57:20.770Z,12.48
2023-04-14T04:00:27.161Z,12.52
2023-04-14T04:03:30.872Z,12.42
2023-04-14T04:06:34.387Z,12.50
2023-04-14T04:09:38.939Z,12.36
2023-04-14T04:12:43.719Z,12.42
2023-04-14T04:15:49.443Z,12.36
2023-04-14T04:18:53.275Z,12.38
2023-04-14T04:21:58.437Z,12.37
2023-04-14T04:25:01.596Z,12.37
2023-04-14T04:28:05.643Z,12.36
2023-04-14T04:31:10.916Z,12.28
2023-04-14T04:34:16.118Z,12.38
2023-04-14T04:37:22.554Z,12.35
2023-04-14T04:40:25.441Z,12.41
2023-04-14T04:43:28.158Z,12.37
2023-04-14T04:46:54.460Z,12.41
2023-04-14T04:49:57.800Z,12.44
2023-04-14T04:53:00.634Z,12.33
2023-04-14T04:56:03.143Z,12.37
2023-04-14T04:59:05.921Z,12.34
2023-04-14T05:02:08.324Z,12.31
2023-04-14T05:05:11.309Z,12.28
2023-04-14T05:08:15.089Z,12.31
2023-04-14T05:11:18.066Z,12.19
2023-04-14T05:14:20.645Z,12.28
2023-04-14T05:17:23.403Z,12.29
2023-04-14T05:20:25.845Z,12.32
2023-04-14T05:23:28.546Z,12.16
2023-04-14T05:26:51.669Z,12.28
2023-04-14T05:29:53.965Z,12.27
2023-04-14T05:32:56.319Z,12.29
2023-04-14T05:35:58.913Z,12.14
2023-04-14T05:39:01.424Z,12.29
2023-04-14T05:42:04.191Z,12.26
2023-04-14T05:45:07.242Z,12.28
2023-04-14T05:48:09.907Z,12.24
2023-04-14T05:51:12.559Z,12.27
2023-04-14T05:54:15.642Z,12.24
2023-04-14T05:57:17.970Z,12.29
2023-04-14T06:00:23.361Z,12.44
2023-04-14T06:03:26.122Z,12.47
2023-04-14T06:06:28.855Z,12.43
2023-04-14T06:09:31.801Z,12.40
2023-04-14T06:12:34.278Z,12.48
2023-04-14T06:15:37.383Z,12.62
2023-04-14T06:18:39.750Z,12.65
2023-04-14T06:21:42.390Z,12.64
2023-04-14T06:24:47.905Z,12.76
2023-04-14T06:27:50.732Z,12.66
2023-04-14T06:30:53.276Z,12.77
2023-04-14T06:33:56.123Z,12.73
2023-04-14T06:37:01.624Z,12.63
2023-04-14T06:40:04.623Z,12.65
2023-04-14T06:43:10.965Z,12.78
2023-04-14T06:46:13.848Z,12.71
2023-04-14T06:49:17.573Z,12.77
2023-04-14T06:52:20.419Z,12.86
2023-04-14T06:55:22.810Z,12.80
2023-04-14T06:58:27.279Z,12.78
2023-04-14T07:01:29.700Z,12.85
2023-04-14T07:04:32.423Z,12.89
2023-04-14T07:07:40.227Z,12.92
2023-04-14T07:10:42.904Z,12.99
2023-04-14T07:13:45.770Z,12.97
2023-04-14T07:16:48.601Z,13.00
2023-04-14T07:19:51.021Z,12.99
2023-04-14T07:22:53.638Z,12.95
2023-04-14T07:25:58.416Z,13.07
2023-04-14T07:29:01.404Z,13.13
2023-04-14T07:32:03.806Z,13.20
2023-04-14T07:35:08.688Z,13.28
2023-04-14T07:38:11.219Z,13.36
2023-04-14T07:41:13.919Z,13.28
2023-04-14T07:44:16.404Z,13.31
2023-04-14T07:47:19.130Z,13.29
2023-04-14T07:50:21.917Z,13.23
2023-04-14T07:53:24.853Z,13.19
2023-04-14T07:56:27.204Z,13.14
2023-04-14T07:59:31.928Z,13.21
2023-04-14T08:02:34.405Z,13.20
2023-04-14T08:05:37.813Z,13.17
2023-04-14T08:08:40.503Z,13.24
2023-04-14T08:11:43.140Z,13.22
2023-04-14T08:14:47.647Z,13.10
2023-04-14T08:17:50.528Z,13.34
2023-04-14T08:20:52.899Z,13.36
2023-04-14T08:23:55.963Z,13.47
2023-04-14T08:26:59.126Z,13.45
2023-04-14T08:30:01.760Z,13.34
2023-04-14T08:33:04.470Z,13.33
2023-04-14T08:36:07.412Z,13.42
2023-04-14T08:39:09.769Z,13.34
2023-04-14T08:42:15.993Z,13.38
2023-04-14T08:45:19.963Z,13.26
2023-04-14T08:48:26.242Z,13.42
2023-04-14T08:51:32.387Z,13.43
2023-04-14T08:54:35.378Z,13.40
2023-04-14T08:57:38.856Z,13.21
2023-04-14T09:00:41.679Z,13.20
2023-04-14T09:03:44.885Z,13.08
2023-04-14T09:06:47.671Z,13.14
2023-04-14T09:09:50.502Z,13.17
2023-04-14T09:12:54.486Z,13.01
2023-04-14T09:15:57.397Z,13.08
2023-04-14T09:19:06.415Z,12.85
2023-04-14T09:22:10.506Z,12.96
2023-04-14T09:25:15.307Z,12.85
2023-04-14T09:28:17.737Z,13.05
2023-04-14T09:31:20.905Z,13.03
2023-04-14T09:34:23.503Z,12.89
2023-04-14T09:37:26.222Z,12.84
2023-04-14T09:40:30.656Z,12.90
2023-04-14T09:43:33.865Z,12.80
2023-04-14T09:46:36.686Z,12.84
2023-04-14T09:49:56.151Z,12.83
2023-04-14T09:52:58.551Z,12.69
2023-04-14T09:56:05.988Z,12.49
2023-04-14T09:59:08.492Z,12.62
2023-04-14T10:02:12.096Z,12.60
2023-04-14T10:05:15.830Z,12.63
2023-04-14T10:08:18.169Z,12.57
2023-04-14T10:11:29.789Z,12.58
2023-04-14T10:14:33.293Z,12.56
2023-04-14T10:17:37.333Z,12.54
2023-04-14T10:20:39.812Z,12.55
2023-04-14T10:23:43.692Z,12.48
2023-04-14T10:26:48.120Z,12.62
2023-04-14T10:29:50.755Z,12.46
2023-04-14T10:32:53.570Z,12.33
2023-04-14T10:36:02.976Z,12.31
2023-04-14T10:39:06.668Z,12.28
2023-04-14T10:42:09.780Z,12.11
2023-04-14T10:45:12.849Z,12.08
2023-04-14T10:48:15.657Z,12.10
2023-04-14T10:51:18.305Z,12.05
2023-04-14T10:54:21.206Z,12.00
2023-04-14T10:57:30.241Z,12.06
2023-04-14T11:00:38.112Z,12.09
2023-04-14T11:03:46.804Z,12.10
2023-04-14T11:06:51.562Z,11.91
2023-04-14T11:09:59.180Z,12.09
2023-04-14T11:13:04.028Z,12.09
2023-04-14T11:16:07.944Z,12.10
2023-04-14T11:19:15.280Z,12.22
2023-04-14T11:22:37.373Z,12.22
2023-04-14T11:25:40.469Z,12.30
2023-04-14T11:28:45.105Z,12.31
2023-04-14T11:31:59.230Z,12.33
2023-04-14T11:35:08.314Z,12.31
2023-04-14T11:38:11.378Z,12.35
2023-04-14T11:41:15.737Z,12.21
2023-04-14T11:44:19.559Z,12.26
2023-04-14T11:47:22.329Z,12.14
2023-04-14T11:50:25.803Z,12.25
2023-04-14T11:53:28.568Z,12.14
2023-04-14T11:56:32.007Z,12.12
2023-04-14T11:59:42.256Z,12.13
2023-04-14T12:02:45.948Z,12.13
2023-04-14T12:05:48.888Z,12.13
2023-04-14T12:08:57.128Z,12.08
2023-04-14T12:11:59.900Z,12.10
2023-04-14T12:15:03.470Z,11.98
2023-04-14T12:18:15.867Z,11.79
2023-04-14T12:21:19.714Z,11.85
2023-04-14T12:24:22.643Z,11.99
2023-04-14T12:27:26.675Z,11.83
2023-04-14T12:30:29.620Z,11.95
2023-04-14T12:33:32.926Z,11.84
2023-04-14T12:36:49.532Z,11.47
2023-04-14T12:40:01.073Z,11.11
2023-04-14T12:43:04.001Z,11.09
2023-04-14T12:46:07.957Z,10.96
2023-04-14T12:49:29.829Z,10.90
2023-04-14T12:52:34.692Z,10.79
2023-04-14T12:55:38.301Z,10.61
2023-04-14T12:58:42.892Z,10.60
2023-04-14T13:01:45.776Z,10.74
2023-04-14T13:04:48.154Z,10.81
2023-04-14T13:07:50.875Z,10.78
2023-04-14T13:10:54.250Z,10.81
2023-04-14T13:13:57.252Z,10.85
2023-04-14T13:16:59.669Z,10.70
2023-04-14T13:20:02.309Z,10.54
2023-04-14T13:23:04.771Z,10.55
2023-04-14T13:26:07.515Z,10.72
2023-04-14T13:29:09.860Z,10.71
2023-04-14T13:32:12.800Z,10.61
2023-04-14T13:35:15.548Z,10.50
2023-04-14T13:38:18.281Z,10.80
2023-04-14T13:41:20.806Z,10.77
2023-04-14T13:44:23.945Z,10.73
2023-04-14T13:47:26.439Z,10.68
2023-04-14T13:50:29.061Z,10.66
2023-04-14T13:53:31.483Z,10.89
2023-04-14T13:56:34.196Z,10.70
2023-04-14T13:59:36.710Z,10.71
2023-04-14T14:02:39.996Z,10.65
2023-04-14T14:05:43.001Z,10.69
2023-04-14T14:08:45.611Z,10.73
2023-04-14T14:11:48.264Z,10.49
2023-04-14T14:14:50.604Z,10.71
2023-04-14T14:17:55.030Z,10.52
2023-04-14T14:20:57.420Z,10.83
2023-04-14T14:24:00.323Z,10.73
2023-04-14T14:27:03.093Z,10.79
2023-04-14T14:30:06.529Z,10.28
2023-04-14T14:33:09.003Z,10.43
2023-04-14T14:36:11.705Z,10.32
2023-04-14T14:39:14.257Z,10.01
2023-04-14T14:42:17.023Z,9.88
2023-04-14T14:45:20.927Z,9.77
2023-04-14T14:48:33.045Z,10.07
2023-04-14T14:51:36.168Z,9.85
2023-04-14T14:54:40.307Z,9.91
2023-04-14T14:57:43.151Z,10.03
2023-04-14T15:00:46.856Z,10.00
2023-04-14T15:03:49.334Z,9.67
2023-04-14T15:06:52.130Z,9.78
2023-04-14T15:09:54.438Z,9.45
2023-04-14T15:12:57.566Z,9.57
2023-04-14T15:16:00.030Z,9.65
2023-04-14T15:19:03.473Z,9.71
2023-04-14T15:22:05.908Z,9.66
2023-04-14T15:25:09.260Z,9.85
2023-04-14T15:28:13.133Z,9.79
2023-04-14T15:31:15.878Z,9.82
2023-04-14T15:34:18.291Z,9.66
2023-04-14T15:37:21.054Z,9.48
2023-04-14T15:40:23.479Z,9.47
2023-04-14T15:43:27.818Z,9.18
2023-04-14T15:46:30.473Z,9.13
2023-04-14T15:49:33.151Z,8.78
2023-04-14T15:52:35.733Z,8.83
2023-04-14T15:55:38.398Z,8.94
2023-04-14T15:58:41.086Z,9.07
2023-04-14T16:01:43.825Z,9.15
2023-04-14T16:04:46.556Z,8.96
2023-04-14T16:07:51.725Z,9.16
2023-04-14T16:10:54.328Z,8.90
2023-04-14T16:13:57.016Z,8.95
2023-04-14T16:16:59.579Z,8.98
2023-04-14T16:20:02.091Z,8.87
2023-04-14T16:23:04.772Z,8.91
2023-04-14T16:26:07.919Z,8.90
2023-04-14T16:29:10.860Z,8.77
2023-04-14T16:32:13.349Z,8.76
2023-04-14T16:35:16.778Z,8.70
2023-04-14T16:38:19.137Z,8.69
2023-04-14T16:41:22.692Z,8.77
2023-04-14T16:44:25.016Z,8.50
2023-04-14T16:47:27.774Z,8.42
2023-04-14T16:50:32.191Z,8.44
2023-04-14T16:53:36.058Z,8.67
2023-04-14T16:56:38.443Z,8.70
2023-04-14T16:59:41.081Z,8.73
2023-04-14T17:02:43.675Z,8.62
2023-04-14T17:05:46.838Z,8.71
2023-04-14T17:08:49.103Z,8.60
2023-04-14T17:11:52.071Z,8.63
2023-04-14T17:14:54.454Z,8.61
2023-04-14T17:17:57.139Z,8.44
2023-04-14T17:20:59.528Z,8.29
2023-04-14T17:24:04.765Z,8.24
2023-04-14T17:27:07.347Z,8.31
2023-04-14T17:30:11.593Z,8.49
2023-04-14T17:33:16.141Z,8.45
2023-04-14T17:36:18.812Z,8.43
2023-04-14T17:39:26.726Z,8.35
2023-04-14T17:42:30.929Z,8.15
2023-04-14T17:45:35.132Z,8.20
2023-04-14T17:48:38.420Z,7.90
2023-04-14T17:51:40.704Z,7.87
2023-04-14T17:54:44.628Z,7.78
2023-04-14T17:57:47.068Z,7.86
2023-04-14T18:00:50.332Z,7.99
2023-04-14T18:03:53.118Z,8.06
2023-04-14T18:06:56.702Z,7.62
2023-04-14T18:09:59.311Z,7.60
2023-04-14T18:13:01.785Z,7.65
2023-04-14T18:16:04.610Z,7.56
2023-04-14T18:19:06.957Z,7.51
2023-04-14T18:22:09.657Z,7.33
2023-04-14T18:25:12.058Z,7.40
2023-04-14T18:28:14.700Z,7.51
2023-04-14T18:31:17.252Z,7.66
2023-04-14T18:34:19.921Z,7.47
2023-04-14T18:37:22.350Z,7.28
2023-04-14T18:40:27.071Z,7.46
2023-04-14T18:43:29.952Z,7.49
2023-04-14T18:46:32.650Z,7.31
2023-04-14T18:49:35.421Z,7.26
2023-04-14T18:52:38.063Z,7.34
2023-04-14T18:55:45.427Z,7.51
2023-04-14T18:58:49.334Z,7.60
2023-04-14T19:01:52.812Z,7.72
2023-04-14T19:04:56.450Z,7.66
2023-04-14T19:07:58.870Z,7.73
2023-04-14T19:11:02.200Z,7.85
2023-04-14T19:14:04.991Z,7.43
2023-04-14T19:17:07.578Z,7.43
2023-04-14T19:20:10.400Z,7.48
2023-04-14T19:23:13.126Z,7.48
2023-04-14T19:26:15.602Z,7.65
2023-04-14T19:29:18.579Z,7.72
2023-04-14T19:32:20.928Z,7.69
2023-04-14T19:35:23.647Z,7.64
2023-04-14T19:38:26.182Z,7.49
2023-04-14T19:41:29.296Z,7.14
2023-04-14T19:44:32.322Z,7.43
2023-04-14T19:47:35.089Z,7.43
2023-04-14T19:50:37.471Z,7.28
2023-04-14T19:53:40.422Z,7.16
2023-04-14T19:56:42.666Z,7.17
2023-04-14T19:59:45.273Z,7.10
2023-04-14T20:02:47.937Z,7.12
2023-04-14T20:05:56.706Z,7.19
2023-04-14T20:08:59.445Z,7.09
2023-04-14T20:12:02.500Z,7.24
2023-04-14T20:15:05.522Z,7.09
2023-04-14T20:18:08.883Z,7.21
2023-04-14T20:21:13.694Z,7.09
2023-04-14T20:24:16.329Z,7.12
2023-04-14T20:27:18.823Z,7.15
2023-04-14T20:30:22.034Z,6.96
2023-04-14T20:33:24.598Z,6.99
2023-04-14T20:36:27.247Z,6.84
2023-04-14T20:39:29.644Z,6.95
2023-04-14T20:42:32.252Z,6.81
2023-04-14T20:45:35.041Z,6.78
2023-04-14T20:48:37.723Z,6.75
2023-04-14T20:51:40.086Z,6.53
2023-04-14T20:54:42.785Z,6.77
2023-04-14T20:57:46.231Z,6.63
2023-04-14T21:00:49.286Z,6.61
2023-04-14T21:03:51.720Z,6.63
2023-04-14T21:06:54.916Z,6.60
2023-04-14T21:09:57.396Z,6.53
2023-04-14T21:15:24.717Z,6.65
2023-04-14T21:16:22.608Z,6.69
2023-04-14T21:19:27.165Z,6.89
2023-04-14T21:22:30.018Z,6.74
2023-04-14T21:25:34.933Z,6.77
2023-04-14T21:28:38.166Z,6.77
2023-04-14T21:31:41.008Z,6.82
2023-04-14T21:34:43.887Z,6.88
2023-04-14T21:37:47.330Z,6.80
2023-04-14T21:40:50.544Z,6.82
2023-04-14T21:43:53.593Z,6.83
2023-04-14T21:46:56.306Z,6.96
2023-04-14T21:49:58.993Z,6.97
2023-04-14T21:53:02.657Z,7.12
2023-04-14T21:56:10.003Z,7.01
2023-04-14T21:59:13.797Z,7.12
2023-04-14T22:02:16.892Z,7.14
2023-04-14T22:05:20.074Z,7.06
2023-04-14T22:08:24.084Z,7.04
2023-04-14T22:11:28.723Z,6.97
2023-04-14T22:14:31.319Z,6.91
2023-04-14T22:17:34.583Z,6.98
2023-04-14T22:20:37.413Z,6.97
2023-04-14T22:23:41.589Z,6.83
2023-04-14T22:26:44.002Z,6.90
2023-04-14T22:29:46.598Z,6.74
2023-04-14T22:32:48.965Z,6.69
2023-04-14T22:35:52.134Z,6.67
2023-04-14T22:38:54.455Z,6.73
2023-04-14T22:41:57.577Z,6.53
2023-04-14T22:45:01.294Z,6.61
2023-04-14T22:48:09.778Z,6.59
2023-04-14T22:51:12.609Z,6.53
2023-04-14T22:54:15.220Z,6.40
2023-04-14T22:57:17.607Z,6.46
2023-04-14T23:00:21.693Z,6.64
2023-04-14T23:03:24.270Z,6.63
2023-04-14T23:06:27.037Z,6.68
2023-04-14T23:09:31.265Z,6.75
2023-04-14T23:12:34.174Z,6.82
2023-04-14T23:15:37.114Z,6.80
2023-04-14T23:18:40.254Z,6.92
2023-04-14T23:21:42.553Z,6.94
2023-04-14T23:24:45.934Z,6.96
2023-04-14T23:27:48.264Z,6.88
2023-04-14T23:30:51.098Z,7.04
2023-04-14T23:33:54.178Z,7.01
2023-04-14T23:36:56.852Z,6.99
2023-04-14T23:39:59.140Z,6.97
2023-04-14T23:43:02.100Z,7.00
2023-04-14T23:46:04.631Z,7.01
2023-04-14T23:49:23.626Z,7.01
2023-04-14T23:52:27.232Z,6.96
2023-04-14T23:55:29.887Z,6.95
2023-04-14T23:58:32.589Z,6.94
